sensor_id;sensor_type;location;lat;lon;timestamp;P1;durP1;ratioP1;P2;durP2;ratioP2
40339;SDS011;26044;50.864;20.658;2023-02-17T00:01:38;125.30;;;56.22;;
40339;SDS011;26044;50.864;20.658;2023-02-17T00:04:12;132.95;;;56.75;;
40339;SDS011;26044;50.864;20.658;2023-02-17T00:07:13;120.82;;;51.42;;
40339;SDS011;26044;50.864;20.658;2023-02-17T00:09:44;124.25;;;55.38;;
40339;SDS011;26044;50.864;20.658;2023-02-17T00:12:19;114.93;;;53.72;;
40339;SDS011;26044;50.864;20.658;2023-02-17T00:14:59;114.43;;;48.45;;
40339;SDS011;26044;50.864;20.658;2023-02-17T00:18:09;121.65;;;48.78;;
40339;SDS011;26044;50.864;20.658;2023-02-17T00:20:47;129.93;;;57.88;;
40339;SDS011;26044;50.864;20.658;2023-02-17T00:23:24;127.80;;;56.22;;
40339;SDS011;26044;50.864;20.658;2023-02-17T00:26:08;127.90;;;56.08;;
40339;SDS011;26044;50.864;20.658;2023-02-17T00:28:57;129.90;;;57.08;;
40339;SDS011;26044;50.864;20.658;2023-02-17T00:31:27;127.63;;;58.38;;
40339;SDS011;26044;50.864;20.658;2023-02-17T00:34:45;137.85;;;58.47;;
40339;SDS011;26044;50.864;20.658;2023-02-17T00:37:24;129.82;;;56.20;;
40339;SDS011;26044;50.864;20.658;2023-02-17T00:40:38;121.30;;;55.15;;
40339;SDS011;26044;50.864;20.658;2023-02-17T00:43:35;125.65;;;57.35;;
40339;SDS011;26044;50.864;20.658;2023-02-17T00:46:21;126.75;;;56.80;;
40339;SDS011;26044;50.864;20.658;2023-02-17T00:49:04;139.10;;;58.60;;
40339;SDS011;26044;50.864;20.658;2023-02-17T00:52:36;129.25;;;58.70;;
40339;SDS011;26044;50.864;20.658;2023-02-17T00:55:22;129.77;;;59.25;;
40339;SDS011;26044;50.864;20.658;2023-02-17T01:00:59;132.23;;;59.17;;
40339;SDS011;26044;50.864;20.658;2023-02-17T01:03:51;139.60;;;62.38;;
40339;SDS011;26044;50.864;20.658;2023-02-17T01:10:14;135.40;;;59.17;;
40339;SDS011;26044;50.864;20.658;2023-02-17T01:13:40;136.68;;;60.88;;
40339;SDS011;26044;50.864;20.658;2023-02-17T01:16:28;135.00;;;58.78;;
40339;SDS011;26044;50.864;20.658;2023-02-17T01:19:22;142.23;;;62.38;;
40339;SDS011;26044;50.864;20.658;2023-02-17T01:25:03;139.18;;;61.40;;
40339;SDS011;26044;50.864;20.658;2023-02-17T01:27:57;142.65;;;60.72;;
40339;SDS011;26044;50.864;20.658;2023-02-17T01:30:28;135.38;;;61.78;;
40339;SDS011;26044;50.864;20.658;2023-02-17T01:33:14;139.75;;;61.88;;
40339;SDS011;26044;50.864;20.658;2023-02-17T01:35:46;131.85;;;60.60;;
40339;SDS011;26044;50.864;20.658;2023-02-17T01:38:21;136.60;;;64.05;;
40339;SDS011;26044;50.864;20.658;2023-02-17T01:41:11;151.73;;;67.68;;
40339;SDS011;26044;50.864;20.658;2023-02-17T01:46:54;152.85;;;66.25;;
40339;SDS011;26044;50.864;20.658;2023-02-17T01:49:38;146.20;;;66.90;;
40339;SDS011;26044;50.864;20.658;2023-02-17T01:52:22;153.38;;;71.97;;
40339;SDS011;26044;50.864;20.658;2023-02-17T01:55:18;155.30;;;72.25;;
40339;SDS011;26044;50.864;20.658;2023-02-17T01:58:01;164.95;;;72.30;;
40339;SDS011;26044;50.864;20.658;2023-02-17T02:00:58;164.05;;;72.13;;
40339;SDS011;26044;50.864;20.658;2023-02-17T02:03:45;155.85;;;69.65;;
40339;SDS011;26044;50.864;20.658;2023-02-17T02:06:26;156.10;;;68.90;;
40339;SDS011;26044;50.864;20.658;2023-02-17T02:09:15;173.50;;;76.05;;
40339;SDS011;26044;50.864;20.658;2023-02-17T02:12:02;163.25;;;73.47;;
40339;SDS011;26044;50.864;20.658;2023-02-17T02:14:39;159.02;;;70.55;;
40339;SDS011;26044;50.864;20.658;2023-02-17T02:27:06;168.70;;;74.28;;
40339;SDS011;26044;50.864;20.658;2023-02-17T02:38:23;161.65;;;71.65;;
40339;SDS011;26044;50.864;20.658;2023-02-17T02:41:14;164.07;;;73.97;;
40339;SDS011;26044;50.864;20.658;2023-02-17T02:50:08;155.07;;;66.78;;
40339;SDS011;26044;50.864;20.658;2023-02-17T03:01:48;153.18;;;69.30;;
40339;SDS011;26044;50.864;20.658;2023-02-17T03:04:23;154.55;;;68.68;;
40339;SDS011;26044;50.864;20.658;2023-02-17T03:07:29;153.25;;;67.57;;
40339;SDS011;26044;50.864;20.658;2023-02-17T03:10:18;143.07;;;67.05;;
40339;SDS011;26044;50.864;20.658;2023-02-17T03:13:13;147.30;;;66.57;;
40339;SDS011;26044;50.864;20.658;2023-02-17T03:15:53;147.18;;;67.05;;
40339;SDS011;26044;50.864;20.658;2023-02-17T03:18:48;147.77;;;67.35;;
40339;SDS011;26044;50.864;20.658;2023-02-17T03:21:58;140.68;;;62.45;;
40339;SDS011;26044;50.864;20.658;2023-02-17T03:24:56;137.27;;;61.95;;
40339;SDS011;26044;50.864;20.658;2023-02-17T03:27:48;138.98;;;60.90;;
40339;SDS011;26044;50.864;20.658;2023-02-17T03:30:32;139.50;;;61.53;;
40339;SDS011;26044;50.864;20.658;2023-02-17T03:33:33;135.00;;;61.97;;
40339;SDS011;26044;50.864;20.658;2023-02-17T03:36:34;132.07;;;58.75;;
40339;SDS011;26044;50.864;20.658;2023-02-17T03:39:29;133.25;;;58.10;;
40339;SDS011;26044;50.864;20.658;2023-02-17T03:42:35;121.75;;;55.85;;
40339;SDS011;26044;50.864;20.658;2023-02-17T03:45:40;133.48;;;57.88;;
40339;SDS011;26044;50.864;20.658;2023-02-17T03:48:25;140.05;;;61.47;;
40339;SDS011;26044;50.864;20.658;2023-02-17T03:51:16;125.47;;;56.70;;
40339;SDS011;26044;50.864;20.658;2023-02-17T03:53:55;129.20;;;60.85;;
40339;SDS011;26044;50.864;20.658;2023-02-17T03:56:48;137.40;;;59.15;;
40339;SDS011;26044;50.864;20.658;2023-02-17T03:59:40;145.32;;;63.88;;
40339;SDS011;26044;50.864;20.658;2023-02-17T04:02:38;148.50;;;61.50;;
40339;SDS011;26044;50.864;20.658;2023-02-17T04:05:30;147.37;;;66.90;;
40339;SDS011;26044;50.864;20.658;2023-02-17T04:08:08;145.75;;;65.97;;
40339;SDS011;26044;50.864;20.658;2023-02-17T04:11:18;153.55;;;68.82;;
40339;SDS011;26044;50.864;20.658;2023-02-17T04:17:27;154.77;;;70.82;;
40339;SDS011;26044;50.864;20.658;2023-02-17T04:20:21;150.25;;;69.20;;
40339;SDS011;26044;50.864;20.658;2023-02-17T04:22:57;144.15;;;68.18;;
40339;SDS011;26044;50.864;20.658;2023-02-17T04:28:48;152.23;;;67.63;;
40339;SDS011;26044;50.864;20.658;2023-02-17T04:31:32;148.18;;;66.93;;
40339;SDS011;26044;50.864;20.658;2023-02-17T04:34:07;149.43;;;63.50;;
40339;SDS011;26044;50.864;20.658;2023-02-17T04:36:52;155.23;;;70.13;;
40339;SDS011;26044;50.864;20.658;2023-02-17T04:39:27;149.48;;;66.65;;
40339;SDS011;26044;50.864;20.658;2023-02-17T04:45:37;155.10;;;68.07;;
40339;SDS011;26044;50.864;20.658;2023-02-17T04:48:38;149.55;;;68.53;;
40339;SDS011;26044;50.864;20.658;2023-02-17T04:51:34;147.40;;;66.63;;
40339;SDS011;26044;50.864;20.658;2023-02-17T04:57:37;145.65;;;67.82;;
40339;SDS011;26044;50.864;20.658;2023-02-17T05:00:10;139.45;;;67.05;;
40339;SDS011;26044;50.864;20.658;2023-02-17T05:03:04;131.85;;;62.65;;
40339;SDS011;26044;50.864;20.658;2023-02-17T05:05:48;145.73;;;64.63;;
40339;SDS011;26044;50.864;20.658;2023-02-17T05:08:46;140.63;;;66.50;;
40339;SDS011;26044;50.864;20.658;2023-02-17T05:11:40;139.35;;;63.83;;
40339;SDS011;26044;50.864;20.658;2023-02-17T05:14:40;151.88;;;66.82;;
40339;SDS011;26044;50.864;20.658;2023-02-17T05:17:22;154.38;;;69.00;;
40339;SDS011;26044;50.864;20.658;2023-02-17T05:25:48;160.27;;;76.05;;
40339;SDS011;26044;50.864;20.658;2023-02-17T05:31:51;183.18;;;88.85;;
40339;SDS011;26044;50.864;20.658;2023-02-17T05:34:30;199.00;;;94.32;;
40339;SDS011;26044;50.864;20.658;2023-02-17T05:37:37;203.93;;;97.97;;
40339;SDS011;26044;50.864;20.658;2023-02-17T05:44:12;193.68;;;87.93;;
40339;SDS011;26044;50.864;20.658;2023-02-17T05:46:57;182.55;;;88.15;;
40339;SDS011;26044;50.864;20.658;2023-02-17T05:49:34;185.95;;;88.07;;
40339;SDS011;26044;50.864;20.658;2023-02-17T05:55:33;177.02;;;84.63;;
40339;SDS011;26044;50.864;20.658;2023-02-17T05:58:30;178.80;;;82.70;;
40339;SDS011;26044;50.864;20.658;2023-02-17T06:04:29;307.98;;;143.30;;
40339;SDS011;26044;50.864;20.658;2023-02-17T06:06:57;313.58;;;147.00;;
40339;SDS011;26044;50.864;20.658;2023-02-17T06:09:24;315.05;;;150.60;;
40339;SDS011;26044;50.864;20.658;2023-02-17T06:11:51;229.48;;;106.95;;
40339;SDS011;26044;50.864;20.658;2023-02-17T06:14:19;225.50;;;110.80;;
40339;SDS011;26044;50.864;20.658;2023-02-17T06:16:48;218.13;;;109.20;;
40339;SDS011;26044;50.864;20.658;2023-02-17T06:19:16;217.40;;;104.30;;
40339;SDS011;26044;50.864;20.658;2023-02-17T06:21:49;251.35;;;111.85;;
40339;SDS011;26044;50.864;20.658;2023-02-17T06:24:23;244.98;;;111.75;;
40339;SDS011;26044;50.864;20.658;2023-02-17T06:26:55;246.13;;;113.00;;
40339;SDS011;26044;50.864;20.658;2023-02-17T06:29:22;264.88;;;117.55;;
40339;SDS011;26044;50.864;20.658;2023-02-17T06:31:49;256.08;;;118.68;;
40339;SDS011;26044;50.864;20.658;2023-02-17T06:34:16;266.52;;;122.82;;
40339;SDS011;26044;50.864;20.658;2023-02-17T06:36:44;221.40;;;105.18;;
40339;SDS011;26044;50.864;20.658;2023-02-17T06:39:11;211.25;;;99.28;;
40339;SDS011;26044;50.864;20.658;2023-02-17T06:41:39;193.68;;;92.78;;
40339;SDS011;26044;50.864;20.658;2023-02-17T06:44:07;218.63;;;104.90;;
40339;SDS011;26044;50.864;20.658;2023-02-17T06:46:35;202.43;;;101.32;;
40339;SDS011;26044;50.864;20.658;2023-02-17T06:49:02;187.00;;;90.07;;
40339;SDS011;26044;50.864;20.658;2023-02-17T06:51:29;197.38;;;91.95;;
40339;SDS011;26044;50.864;20.658;2023-02-17T06:53:56;177.18;;;90.65;;
40339;SDS011;26044;50.864;20.658;2023-02-17T06:56:24;194.73;;;97.97;;
40339;SDS011;26044;50.864;20.658;2023-02-17T06:58:51;186.02;;;90.22;;
40339;SDS011;26044;50.864;20.658;2023-02-17T07:01:20;161.57;;;80.28;;
40339;SDS011;26044;50.864;20.658;2023-02-17T07:03:47;174.88;;;84.68;;
40339;SDS011;26044;50.864;20.658;2023-02-17T07:06:15;183.80;;;93.15;;
40339;SDS011;26044;50.864;20.658;2023-02-17T07:08:42;173.43;;;85.63;;
40339;SDS011;26044;50.864;20.658;2023-02-17T07:11:10;181.00;;;87.18;;
40339;SDS011;26044;50.864;20.658;2023-02-17T07:13:38;187.88;;;91.88;;
40339;SDS011;26044;50.864;20.658;2023-02-17T07:16:06;189.07;;;92.63;;
40339;SDS011;26044;50.864;20.658;2023-02-17T07:18:35;184.48;;;84.82;;
40339;SDS011;26044;50.864;20.658;2023-02-17T07:21:06;173.60;;;86.32;;
40339;SDS011;26044;50.864;20.658;2023-02-17T07:23:34;179.70;;;77.13;;
40339;SDS011;26044;50.864;20.658;2023-02-17T07:26:03;171.70;;;82.28;;
40339;SDS011;26044;50.864;20.658;2023-02-17T07:28:31;160.40;;;75.57;;
40339;SDS011;26044;50.864;20.658;2023-02-17T07:31:08;156.15;;;76.95;;
40339;SDS011;26044;50.864;20.658;2023-02-17T07:33:37;159.45;;;77.25;;
40339;SDS011;26044;50.864;20.658;2023-02-17T07:36:05;159.48;;;77.03;;
40339;SDS011;26044;50.864;20.658;2023-02-17T07:38:34;160.40;;;75.30;;
40339;SDS011;26044;50.864;20.658;2023-02-17T07:41:35;163.57;;;77.18;;
40339;SDS011;26044;50.864;20.658;2023-02-17T07:43:56;160.35;;;74.72;;
40339;SDS011;26044;50.864;20.658;2023-02-17T07:46:24;165.82;;;83.55;;
40339;SDS011;26044;50.864;20.658;2023-02-17T07:48:51;174.90;;;87.25;;
40339;SDS011;26044;50.864;20.658;2023-02-17T07:51:20;183.73;;;87.70;;
40339;SDS011;26044;50.864;20.658;2023-02-17T07:53:48;172.23;;;81.72;;
40339;SDS011;26044;50.864;20.658;2023-02-17T07:56:17;171.18;;;81.10;;
40339;SDS011;26044;50.864;20.658;2023-02-17T07:58:45;166.45;;;81.20;;
40339;SDS011;26044;50.864;20.658;2023-02-17T08:01:13;169.27;;;75.80;;
40339;SDS011;26044;50.864;20.658;2023-02-17T08:03:42;149.90;;;69.15;;
40339;SDS011;26044;50.864;20.658;2023-02-17T08:06:10;156.43;;;72.63;;
40339;SDS011;26044;50.864;20.658;2023-02-17T08:08:38;159.30;;;73.25;;
40339;SDS011;26044;50.864;20.658;2023-02-17T08:11:24;132.90;;;68.18;;
40339;SDS011;26044;50.864;20.658;2023-02-17T08:14:14;142.13;;;70.07;;
40339;SDS011;26044;50.864;20.658;2023-02-17T08:16:41;135.85;;;66.25;;
40339;SDS011;26044;50.864;20.658;2023-02-17T08:19:08;139.65;;;68.97;;
40339;SDS011;26044;50.864;20.658;2023-02-17T08:21:35;144.60;;;68.20;;
40339;SDS011;26044;50.864;20.658;2023-02-17T08:24:03;135.40;;;65.22;;
40339;SDS011;26044;50.864;20.658;2023-02-17T08:26:30;147.77;;;69.32;;
40339;SDS011;26044;50.864;20.658;2023-02-17T08:28:57;151.70;;;69.53;;
40339;SDS011;26044;50.864;20.658;2023-02-17T08:31:27;136.43;;;66.63;;
40339;SDS011;26044;50.864;20.658;2023-02-17T08:33:55;136.93;;;65.72;;
40339;SDS011;26044;50.864;20.658;2023-02-17T08:36:24;121.03;;;59.80;;
40339;SDS011;26044;50.864;20.658;2023-02-17T08:38:52;122.82;;;57.67;;
40339;SDS011;26044;50.864;20.658;2023-02-17T08:41:21;81.13;;;39.40;;
40339;SDS011;26044;50.864;20.658;2023-02-17T08:43:49;69.72;;;30.70;;
40339;SDS011;26044;50.864;20.658;2023-02-17T08:46:17;67.28;;;30.67;;
40339;SDS011;26044;50.864;20.658;2023-02-17T08:48:44;65.25;;;28.95;;
40339;SDS011;26044;50.864;20.658;2023-02-17T08:51:12;66.07;;;30.17;;
40339;SDS011;26044;50.864;20.658;2023-02-17T08:53:40;72.50;;;30.58;;
40339;SDS011;26044;50.864;20.658;2023-02-17T08:56:08;70.07;;;30.15;;
40339;SDS011;26044;50.864;20.658;2023-02-17T08:58:36;73.63;;;30.38;;
40339;SDS011;26044;50.864;20.658;2023-02-17T09:01:03;76.65;;;29.85;;
40339;SDS011;26044;50.864;20.658;2023-02-17T09:03:32;74.10;;;30.80;;
40339;SDS011;26044;50.864;20.658;2023-02-17T09:06:01;67.65;;;30.13;;
40339;SDS011;26044;50.864;20.658;2023-02-17T09:08:28;78.07;;;33.35;;
40339;SDS011;26044;50.864;20.658;2023-02-17T09:10:56;77.70;;;31.42;;
40339;SDS011;26044;50.864;20.658;2023-02-17T09:13:23;73.95;;;32.50;;
40339;SDS011;26044;50.864;20.658;2023-02-17T09:15:52;62.22;;;30.90;;
40339;SDS011;26044;50.864;20.658;2023-02-17T09:18:20;69.53;;;30.35;;
40339;SDS011;26044;50.864;20.658;2023-02-17T09:20:47;66.00;;;31.20;;
40339;SDS011;26044;50.864;20.658;2023-02-17T09:23:15;74.55;;;32.00;;
40339;SDS011;26044;50.864;20.658;2023-02-17T09:25:43;72.50;;;31.25;;
40339;SDS011;26044;50.864;20.658;2023-02-17T09:28:10;73.45;;;32.28;;
40339;SDS011;26044;50.864;20.658;2023-02-17T09:30:39;75.53;;;30.73;;
40339;SDS011;26044;50.864;20.658;2023-02-17T09:33:07;73.97;;;32.53;;
40339;SDS011;26044;50.864;20.658;2023-02-17T09:35:35;76.80;;;34.05;;
40339;SDS011;26044;50.864;20.658;2023-02-17T09:38:03;77.53;;;33.25;;
40339;SDS011;26044;50.864;20.658;2023-02-17T09:40:42;74.50;;;32.83;;
40339;SDS011;26044;50.864;20.658;2023-02-17T09:43:15;73.57;;;32.13;;
40339;SDS011;26044;50.864;20.658;2023-02-17T09:45:45;78.13;;;33.13;;
40339;SDS011;26044;50.864;20.658;2023-02-17T09:48:14;71.65;;;30.05;;
40339;SDS011;26044;50.864;20.658;2023-02-17T09:50:45;70.85;;;29.70;;
40339;SDS011;26044;50.864;20.658;2023-02-17T09:53:21;71.70;;;31.42;;
40339;SDS011;26044;50.864;20.658;2023-02-17T09:55:52;67.72;;;30.10;;
40339;SDS011;26044;50.864;20.658;2023-02-17T09:58:21;71.20;;;31.27;;
40339;SDS011;26044;50.864;20.658;2023-02-17T10:00:57;71.55;;;30.17;;
40339;SDS011;26044;50.864;20.658;2023-02-17T10:03:29;80.28;;;31.08;;
40339;SDS011;26044;50.864;20.658;2023-02-17T10:08:34;72.55;;;31.65;;
40339;SDS011;26044;50.864;20.658;2023-02-17T10:13:57;72.50;;;31.95;;
40339;SDS011;26044;50.864;20.658;2023-02-17T10:16:27;69.43;;;33.47;;
40339;SDS011;26044;50.864;20.658;2023-02-17T10:19:09;80.05;;;31.63;;
40339;SDS011;26044;50.864;20.658;2023-02-17T10:21:41;76.50;;;32.47;;
40339;SDS011;26044;50.864;20.658;2023-02-17T10:24:10;78.05;;;32.67;;
40339;SDS011;26044;50.864;20.658;2023-02-17T10:26:47;70.75;;;31.92;;
40339;SDS011;26044;50.864;20.658;2023-02-17T10:29:28;72.70;;;32.75;;
40339;SDS011;26044;50.864;20.658;2023-02-17T10:32:03;79.03;;;32.55;;
40339;SDS011;26044;50.864;20.658;2023-02-17T10:34:35;73.90;;;35.45;;
40339;SDS011;26044;50.864;20.658;2023-02-17T10:42:03;79.88;;;36.75;;
40339;SDS011;26044;50.864;20.658;2023-02-17T10:44:32;77.20;;;36.28;;
40339;SDS011;26044;50.864;20.658;2023-02-17T10:47:00;73.32;;;35.38;;
40339;SDS011;26044;50.864;20.658;2023-02-17T10:49:28;75.43;;;36.35;;
40339;SDS011;26044;50.864;20.658;2023-02-17T10:52:30;74.07;;;36.22;;
40339;SDS011;26044;50.864;20.658;2023-02-17T10:54:53;73.40;;;33.55;;
40339;SDS011;26044;50.864;20.658;2023-02-17T10:57:22;75.22;;;34.22;;
40339;SDS011;26044;50.864;20.658;2023-02-17T10:59:52;71.90;;;33.77;;
40339;SDS011;26044;50.864;20.658;2023-02-17T11:05:05;74.65;;;33.53;;
40339;SDS011;26044;50.864;20.658;2023-02-17T11:07:39;70.55;;;35.60;;
40339;SDS011;26044;50.864;20.658;2023-02-17T11:10:20;76.68;;;36.67;;
40339;SDS011;26044;50.864;20.658;2023-02-17T11:12:48;75.13;;;33.53;;
40339;SDS011;26044;50.864;20.658;2023-02-17T11:15:19;68.32;;;32.70;;
40339;SDS011;26044;50.864;20.658;2023-02-17T11:17:48;74.30;;;35.15;;
40339;SDS011;26044;50.864;20.658;2023-02-17T11:22:47;71.03;;;32.53;;
40339;SDS011;26044;50.864;20.658;2023-02-17T11:27:55;70.20;;;33.00;;
40339;SDS011;26044;50.864;20.658;2023-02-17T11:30:22;69.18;;;31.05;;
40339;SDS011;26044;50.864;20.658;2023-02-17T11:32:50;66.80;;;30.92;;
40339;SDS011;26044;50.864;20.658;2023-02-17T11:35:27;63.72;;;30.45;;
40339;SDS011;26044;50.864;20.658;2023-02-17T11:38:00;64.35;;;30.13;;
40339;SDS011;26044;50.864;20.658;2023-02-17T11:40:29;63.15;;;29.42;;
40339;SDS011;26044;50.864;20.658;2023-02-17T11:43:00;59.53;;;28.73;;
40339;SDS011;26044;50.864;20.658;2023-02-17T11:45:29;61.40;;;29.90;;
40339;SDS011;26044;50.864;20.658;2023-02-17T11:48:02;66.18;;;29.98;;
40339;SDS011;26044;50.864;20.658;2023-02-17T11:50:34;70.03;;;32.67;;
40339;SDS011;26044;50.864;20.658;2023-02-17T11:53:16;64.55;;;31.92;;
40339;SDS011;26044;50.864;20.658;2023-02-17T12:01:14;63.67;;;31.42;;
40339;SDS011;26044;50.864;20.658;2023-02-17T12:16:50;69.30;;;33.13;;
40339;SDS011;26044;50.864;20.658;2023-02-17T12:19:30;65.07;;;31.50;;
40339;SDS011;26044;50.864;20.658;2023-02-17T12:22:19;68.75;;;33.42;;
40339;SDS011;26044;50.864;20.658;2023-02-17T12:32:23;80.63;;;35.40;;
40339;SDS011;26044;50.864;20.658;2023-02-17T12:34:55;76.22;;;34.13;;
40339;SDS011;26044;50.864;20.658;2023-02-17T12:37:26;76.68;;;35.67;;
40339;SDS011;26044;50.864;20.658;2023-02-17T12:40:02;76.03;;;34.10;;
40339;SDS011;26044;50.864;20.658;2023-02-17T12:42:31;77.93;;;33.72;;
40339;SDS011;26044;50.864;20.658;2023-02-17T12:45:04;67.07;;;30.63;;
40339;SDS011;26044;50.864;20.658;2023-02-17T12:47:36;69.38;;;31.25;;
40339;SDS011;26044;50.864;20.658;2023-02-17T12:52:45;61.15;;;30.67;;
40339;SDS011;26044;50.864;20.658;2023-02-17T12:58:07;68.28;;;30.15;;
40339;SDS011;26044;50.864;20.658;2023-02-17T13:00:39;69.15;;;32.03;;
40339;SDS011;26044;50.864;20.658;2023-02-17T13:03:08;64.85;;;28.65;;
40339;SDS011;26044;50.864;20.658;2023-02-17T13:05:39;60.83;;;27.17;;
40339;SDS011;26044;50.864;20.658;2023-02-17T13:08:15;62.35;;;26.88;;
40339;SDS011;26044;50.864;20.658;2023-02-17T13:10:44;62.00;;;27.45;;
40339;SDS011;26044;50.864;20.658;2023-02-17T13:13:23;57.90;;;27.45;;
40339;SDS011;26044;50.864;20.658;2023-02-17T13:18:49;58.67;;;25.70;;
40339;SDS011;26044;50.864;20.658;2023-02-17T13:24:06;59.75;;;28.25;;
40339;SDS011;26044;50.864;20.658;2023-02-17T13:26:40;62.33;;;26.23;;
40339;SDS011;26044;50.864;20.658;2023-02-17T13:29:30;62.22;;;27.70;;
40339;SDS011;26044;50.864;20.658;2023-02-17T13:31:59;57.85;;;27.00;;
40339;SDS011;26044;50.864;20.658;2023-02-17T13:36:54;57.50;;;24.85;;
40339;SDS011;26044;50.864;20.658;2023-02-17T13:41:55;54.15;;;25.02;;
40339;SDS011;26044;50.864;20.658;2023-02-17T13:46:50;51.45;;;23.63;;
40339;SDS011;26044;50.864;20.658;2023-02-17T13:49:20;47.58;;;22.10;;
40339;SDS011;26044;50.864;20.658;2023-02-17T13:51:48;48.05;;;21.73;;
40339;SDS011;26044;50.864;20.658;2023-02-17T13:54:18;53.03;;;23.83;;
40339;SDS011;26044;50.864;20.658;2023-02-17T13:56:49;53.13;;;24.35;;
40339;SDS011;26044;50.864;20.658;2023-02-17T13:59:22;45.20;;;23.20;;
40339;SDS011;26044;50.864;20.658;2023-02-17T14:01:50;49.30;;;23.95;;
40339;SDS011;26044;50.864;20.658;2023-02-17T14:06:50;55.00;;;24.15;;
40339;SDS011;26044;50.864;20.658;2023-02-17T14:11:47;54.80;;;25.65;;
40339;SDS011;26044;50.864;20.658;2023-02-17T14:14:16;58.17;;;24.70;;
40339;SDS011;26044;50.864;20.658;2023-02-17T14:16:43;58.17;;;25.35;;
40339;SDS011;26044;50.864;20.658;2023-02-17T14:19:14;60.75;;;25.98;;
40339;SDS011;26044;50.864;20.658;2023-02-17T14:21:43;59.30;;;26.65;;
40339;SDS011;26044;50.864;20.658;2023-02-17T14:27:12;62.67;;;26.98;;
40339;SDS011;26044;50.864;20.658;2023-02-17T14:29:41;58.90;;;25.33;;
40339;SDS011;26044;50.864;20.658;2023-02-17T14:35:05;53.28;;;24.40;;
40339;SDS011;26044;50.864;20.658;2023-02-17T14:37:37;45.45;;;21.17;;
40339;SDS011;26044;50.864;20.658;2023-02-17T14:40:13;50.53;;;22.08;;
40339;SDS011;26044;50.864;20.658;2023-02-17T14:42:41;50.30;;;20.65;;
40339;SDS011;26044;50.864;20.658;2023-02-17T14:45:10;49.35;;;20.80;;
40339;SDS011;26044;50.864;20.658;2023-02-17T14:47:37;53.90;;;24.25;;
40339;SDS011;26044;50.864;20.658;2023-02-17T14:50:05;78.05;;;34.40;;
40339;SDS011;26044;50.864;20.658;2023-02-17T14:52:43;48.28;;;22.67;;
40339;SDS011;26044;50.864;20.658;2023-02-17T14:55:12;51.08;;;23.55;;
40339;SDS011;26044;50.864;20.658;2023-02-17T14:57:41;50.35;;;30.80;;
40339;SDS011;26044;50.864;20.658;2023-02-17T15:00:13;56.25;;;36.40;;
40339;SDS011;26044;50.864;20.658;2023-02-17T15:02:41;41.75;;;20.20;;
40339;SDS011;26044;50.864;20.658;2023-02-17T15:05:08;50.33;;;25.63;;
40339;SDS011;26044;50.864;20.658;2023-02-17T15:07:35;50.45;;;21.92;;
40339;SDS011;26044;50.864;20.658;2023-02-17T15:10:09;43.20;;;18.80;;
40339;SDS011;26044;50.864;20.658;2023-02-17T15:12:37;43.88;;;17.92;;
40339;SDS011;26044;50.864;20.658;2023-02-17T15:15:04;40.70;;;17.73;;
40339;SDS011;26044;50.864;20.658;2023-02-17T15:17:34;42.87;;;19.03;;
40339;SDS011;26044;50.864;20.658;2023-02-17T15:20:01;56.65;;;23.27;;
40339;SDS011;26044;50.864;20.658;2023-02-17T15:22:30;51.70;;;23.35;;
40339;SDS011;26044;50.864;20.658;2023-02-17T15:24:59;52.38;;;21.52;;
40339;SDS011;26044;50.864;20.658;2023-02-17T15:27:26;54.85;;;23.38;;
40339;SDS011;26044;50.864;20.658;2023-02-17T15:29:53;47.63;;;21.65;;
40339;SDS011;26044;50.864;20.658;2023-02-17T15:32:21;51.92;;;24.98;;
40339;SDS011;26044;50.864;20.658;2023-02-17T15:34:51;54.90;;;24.13;;
40339;SDS011;26044;50.864;20.658;2023-02-17T15:37:18;56.83;;;24.90;;
40339;SDS011;26044;50.864;20.658;2023-02-17T15:39:46;51.72;;;23.95;;
40339;SDS011;26044;50.864;20.658;2023-02-17T15:42:20;62.58;;;29.02;;
40339;SDS011;26044;50.864;20.658;2023-02-17T15:44:50;47.03;;;22.77;;
40339;SDS011;26044;50.864;20.658;2023-02-17T15:47:18;52.53;;;23.08;;
40339;SDS011;26044;50.864;20.658;2023-02-17T15:49:45;47.97;;;23.60;;
40339;SDS011;26044;50.864;20.658;2023-02-17T15:52:13;80.15;;;34.88;;
40339;SDS011;26044;50.864;20.658;2023-02-17T15:54:41;58.17;;;25.35;;
40339;SDS011;26044;50.864;20.658;2023-02-17T15:57:18;51.58;;;24.33;;
40339;SDS011;26044;50.864;20.658;2023-02-17T15:59:47;52.90;;;24.30;;
40339;SDS011;26044;50.864;20.658;2023-02-17T16:02:19;51.90;;;23.45;;
40339;SDS011;26044;50.864;20.658;2023-02-17T16:04:47;49.60;;;24.85;;
40339;SDS011;26044;50.864;20.658;2023-02-17T16:07:17;51.33;;;25.00;;
40339;SDS011;26044;50.864;20.658;2023-02-17T16:09:44;59.22;;;25.80;;
40339;SDS011;26044;50.864;20.658;2023-02-17T16:12:15;55.70;;;25.65;;
40339;SDS011;26044;50.864;20.658;2023-02-17T16:14:43;59.33;;;29.52;;
40339;SDS011;26044;50.864;20.658;2023-02-17T16:17:11;67.50;;;29.55;;
40339;SDS011;26044;50.864;20.658;2023-02-17T16:19:40;54.92;;;27.98;;
40339;SDS011;26044;50.864;20.658;2023-02-17T16:22:07;62.15;;;28.55;;
40339;SDS011;26044;50.864;20.658;2023-02-17T16:24:34;59.47;;;27.65;;
40339;SDS011;26044;50.864;20.658;2023-02-17T16:27:07;58.10;;;28.50;;
40339;SDS011;26044;50.864;20.658;2023-02-17T16:29:36;55.03;;;26.55;;
40339;SDS011;26044;50.864;20.658;2023-02-17T16:32:04;58.60;;;27.88;;
40339;SDS011;26044;50.864;20.658;2023-02-17T16:34:31;65.15;;;29.67;;
40339;SDS011;26044;50.864;20.658;2023-02-17T16:37:00;59.08;;;30.17;;
40339;SDS011;26044;50.864;20.658;2023-02-17T16:39:28;60.33;;;29.90;;
40339;SDS011;26044;50.864;20.658;2023-02-17T16:41:55;67.20;;;30.45;;
40339;SDS011;26044;50.864;20.658;2023-02-17T16:44:23;66.60;;;29.25;;
40339;SDS011;26044;50.864;20.658;2023-02-17T16:46:54;64.07;;;29.45;;
40339;SDS011;26044;50.864;20.658;2023-02-17T16:49:23;65.22;;;30.02;;
40339;SDS011;26044;50.864;20.658;2023-02-17T16:51:53;61.63;;;29.63;;
40339;SDS011;26044;50.864;20.658;2023-02-17T16:54:20;63.38;;;30.95;;
40339;SDS011;26044;50.864;20.658;2023-02-17T16:56:48;65.75;;;29.85;;
40339;SDS011;26044;50.864;20.658;2023-02-17T16:59:17;66.55;;;31.58;;
40339;SDS011;26044;50.864;20.658;2023-02-17T17:01:45;65.65;;;31.13;;
40339;SDS011;26044;50.864;20.658;2023-02-17T17:04:13;59.90;;;28.02;;
40339;SDS011;26044;50.864;20.658;2023-02-17T17:06:45;60.58;;;29.70;;
40339;SDS011;26044;50.864;20.658;2023-02-17T17:09:16;64.18;;;31.13;;
40339;SDS011;26044;50.864;20.658;2023-02-17T17:11:44;58.95;;;30.00;;
40339;SDS011;26044;50.864;20.658;2023-02-17T17:14:11;64.90;;;30.15;;
40339;SDS011;26044;50.864;20.658;2023-02-17T17:16:38;63.25;;;30.75;;
40339;SDS011;26044;50.864;20.658;2023-02-17T17:19:09;63.20;;;30.45;;
40339;SDS011;26044;50.864;20.658;2023-02-17T17:21:36;61.60;;;30.47;;
40339;SDS011;26044;50.864;20.658;2023-02-17T17:24:04;63.67;;;31.83;;